Time;durP1;ratioP1;P1;durP2;ratioP2;P2;SDS_P1;SDS_P2;PMS_P1;PMS_P2;Temp;Humidity;BMP_temperature;BMP_pressure;BME280_temperature;BME280_humidity;BME280_pressure;Samples;Min_cycle;Max_cycle;Signal;HPM_P1;HPM_P2
2021/12/13 00:01:18;;;;;;;6.35;2.10;;;9.90;72.50;;;;;;2557934;53;21810;-81
2021/12/13 00:05:19;;;;;;;4.45;1.90;;;9.90;71.90;;;;;;2317793;54;21035;-81
2021/12/13 00:07:52;;;;;;;3.17;1.62;;;9.90;71.20;;;;;;2571752;53;20975;-82
2021/12/13 00:10:20;;;;;;;3.22;1.42;;;9.90;72.20;;;;;;2335587;54;21015;-81
2021/12/13 00:12:48;;;;;;;3.92;1.70;;;9.90;72.30;;;;;;2302779;54;22020;-82
2021/12/13 00:15:22;;;;;;;3.70;1.90;;;9.90;72.30;;;;;;2553778;53;21766;-82
2021/12/13 00:17:53;;;;;;;3.37;1.58;;;9.90;72.40;;;;;;2316497;54;20971;-81
2021/12/13 00:20:28;;;;;;;3.53;1.77;;;9.90;72.30;;;;;;2570417;53;20951;-81
2021/12/13 00:22:57;;;;;;;4.10;1.67;;;9.90;72.50;;;;;;2562361;53;20931;-81
2021/12/13 00:25:26;;;;;;;5.18;1.87;;;9.80;72.40;;;;;;2569846;53;21404;-81
2021/12/13 00:27:55;;;;;;;3.15;1.52;;;9.90;72.60;;;;;;2559292;53;22292;-81
2021/12/13 00:30:38;;;;;;;3.75;2.05;;;9.90;72.60;;;;;;2570317;53;20944;-81
2021/12/13 00:33:29;;;;;;;2.95;1.50;;;9.90;72.30;;;;;;2325588;54;20991;-80
2021/12/13 00:36:17;;;;;;;3.40;1.80;;;9.90;72.50;;;;;;2325116;54;21058;-81
2021/12/13 00:38:53;;;;;;;3.30;1.60;;;9.90;72.20;;;;;;2327334;54;21925;-82
2021/12/13 00:41:27;;;;;;;3.50;1.62;;;9.90;72.30;;;;;;2318086;54;20998;-81
2021/12/13 00:43:56;;;;;;;3.45;1.58;;;9.90;72.40;;;;;;2564003;53;20979;-81
2021/12/13 00:46:24;;;;;;;4.05;1.48;;;9.80;72.50;;;;;;2567544;53;20943;-81
2021/12/13 00:48:52;;;;;;;3.47;1.55;;;9.80;72.40;;;;;;2317818;54;21085;-81
2021/12/13 00:51:31;;;;;;;4.35;1.58;;;9.80;72.50;;;;;;2317785;54;21031;-82
2021/12/13 00:54:00;;;;;;;3.83;1.60;;;9.90;72.30;;;;;;2557672;53;20911;-81
2021/12/13 00:58:39;;;;;;;2.70;1.30;;;9.80;72.50;;;;;;2557473;53;20939;-81
2021/12/13 01:01:08;;;;;;;2.78;1.23;;;9.80;72.10;;;;;;2303842;54;20956;-81
2021/12/13 01:03:46;;;;;;;3.00;1.30;;;9.80;72.40;;;;;;2309314;54;21517;-82
2021/12/13 01:06:52;;;;;;;2.85;1.42;;;9.80;72.50;;;;;;2558329;53;20935;-81
2021/12/13 01:16:37;;;;;;;3.00;1.30;;;9.80;72.00;;;;;;2557764;53;20946;-81
2021/12/13 01:23:01;;;;;;;2.80;1.23;;;9.80;72.30;;;;;;2318433;54;20947;-81
2021/12/13 01:31:53;;;;;;;2.10;0.93;;;9.90;72.50;;;;;;2318269;55;21240;-81
2021/12/13 01:34:19;;;;;;;2.10;1.08;;;9.80;72.10;;;;;;2325522;54;20987;-82
2021/12/13 01:37:04;;;;;;;2.50;1.12;;;9.70;72.40;;;;;;2330132;54;20928;-83
2021/12/13 01:39:31;;;;;;;2.60;1.37;;;9.70;72.30;;;;;;2316721;54;21449;-81
2021/12/13 01:42:04;;;;;;;3.40;1.45;;;9.70;72.40;;;;;;2558084;53;20943;-81
2021/12/13 01:44:33;;;;;;;6.30;1.67;;;9.70;72.40;;;;;;2320154;54;20989;-82
2021/12/13 01:47:03;;;;;;;3.10;1.30;;;9.70;72.30;;;;;;2316279;54;21051;-81
2021/12/13 01:49:33;;;;;;;3.62;1.40;;;9.70;72.30;;;;;;2334510;54;21011;-82
2021/12/13 01:52:00;;;;;;;4.35;1.30;;;9.70;72.20;;;;;;2560598;53;20979;-81
2021/12/13 01:54:27;;;;;;;2.95;1.50;;;9.60;72.10;;;;;;2336545;54;21553;-82
2021/12/13 01:57:21;;;;;;;2.80;1.35;;;9.60;72.10;;;;;;2567750;53;20956;-80
2021/12/13 02:00:09;;;;;;;2.75;1.42;;;9.60;71.90;;;;;;2560620;53;21039;-80
2021/12/13 02:02:41;;;;;;;2.85;1.42;;;9.60;71.90;;;;;;2334955;54;21457;-80
2021/12/13 02:05:23;;;;;;;3.40;1.48;;;9.60;71.50;;;;;;2319392;54;20939;-81
2021/12/13 02:08:07;;;;;;;3.08;1.55;;;9.50;70.90;;;;;;2331092;54;20995;-81
2021/12/13 02:10:41;;;;;;;2.30;1.20;;;9.50;70.70;;;;;;2563541;53;20985;-82
2021/12/13 02:13:10;;;;;;;3.28;1.40;;;9.40;70.40;;;;;;2557757;53;21461;-81
2021/12/13 02:24:58;;;;;;;1.90;0.82;;;9.20;70.10;;;;;;2318437;54;20986;-80
2021/12/13 02:27:29;;;;;;;2.30;1.08;;;9.00;70.00;;;;;;2576427;53;20899;-81
2021/12/13 02:29:57;;;;;;;2.45;1.02;;;8.90;70.10;;;;;;2558422;53;21034;-81
2021/12/13 02:32:27;;;;;;;2.50;1.00;;;8.80;70.50;;;;;;2573809;53;20960;-81
2021/12/13 02:34:58;;;;;;;4.07;1.35;;;8.80;70.90;;;;;;2318081;54;21422;-81
2021/12/13 02:37:27;;;;;;;5.47;1.90;;;8.80;71.20;;;;;;2318114;54;20995;-81
2021/12/13 02:39:56;;;;;;;3.40;1.83;;;8.70;71.40;;;;;;2557718;53;20942;-81
2021/12/13 02:42:22;;;;;;;4.80;2.00;;;8.70;71.60;;;;;;2565398;53;20900;-81
2021/12/13 02:44:57;;;;;;;3.17;1.60;;;8.70;71.80;;;;;;2570500;53;21493;-82
2021/12/13 02:47:36;;;;;;;3.35;1.60;;;8.70;72.00;;;;;;2331174;54;21079;-81
2021/12/13 02:50:09;;;;;;;4.53;1.50;;;8.70;72.00;;;;;;2322789;54;20974;-81
2021/12/13 02:52:35;;;;;;;3.33;1.58;;;8.70;72.30;;;;;;2573015;53;20987;-81
2021/12/13 02:55:06;;;;;;;3.42;1.65;;;8.70;72.40;;;;;;2317768;54;20987;-81
2021/12/13 02:57:46;;;;;;;3.62;1.75;;;8.70;72.50;;;;;;2317616;54;21588;-80
2021/12/13 03:00:23;;;;;;;4.60;1.50;;;8.70;72.40;;;;;;2557691;53;20951;-80
2021/12/13 03:02:52;;;;;;;2.87;1.40;;;8.80;72.80;;;;;;2557608;53;21800;-81
2021/12/13 03:05:37;;;;;;;3.78;1.67;;;8.80;72.90;;;;;;2318295;54;20947;-81
2021/12/13 03:08:38;;;;;;;3.47;1.50;;;8.80;72.60;;;;;;2557268;53;20934;-81
2021/12/13 03:11:11;;;;;;;3.97;1.70;;;8.80;72.50;;;;;;2324688;54;21018;-81
2021/12/13 03:13:37;;;;;;;4.40;1.85;;;8.80;72.80;;;;;;2568151;53;20919;-80
2021/12/13 03:16:09;;;;;;;3.08;1.60;;;8.80;72.90;;;;;;2557277;53;21006;-80
2021/12/13 03:20:27;;;;;;;3.35;1.70;;;8.80;72.90;;;;;;2318198;54;20938;-82
2021/12/13 03:24:46;;;;;;;3.92;1.77;;;8.90;72.00;;;;;;2541627;53;20944;-80
2021/12/13 03:27:49;;;;;;;3.12;1.55;;;8.90;72.50;;;;;;2339970;54;20983;-80
2021/12/13 03:31:47;;;;;;;3.37;1.62;;;8.90;72.20;;;;;;2557762;53;20950;-81
2021/12/13 03:34:22;;;;;;;3.45;1.45;;;8.90;72.50;;;;;;2557664;53;20935;-80
2021/12/13 03:37:26;;;;;;;5.70;2.10;;;8.90;72.30;;;;;;2318289;54;20950;-81
2021/12/13 03:40:00;;;;;;;4.12;2.10;;;8.90;72.40;;;;;;2559271;53;20901;-81
2021/12/13 03:42:31;;;;;;;4.62;2.00;;;8.90;72.40;;;;;;2334308;54;21290;-80
2021/12/13 03:45:00;;;;;;;5.05;2.10;;;8.90;72.40;;;;;;2302786;54;20995;-81
2021/12/13 03:47:30;;;;;;;4.15;2.05;;;8.80;72.40;;;;;;2335372;54;20982;-81
2021/12/13 03:49:58;;;;;;;3.85;1.85;;;8.80;72.40;;;;;;2304685;54;20923;-82
2021/12/13 03:52:26;;;;;;;3.58;1.67;;;8.80;73.00;;;;;;2569750;53;20854;-81
2021/12/13 03:54:54;;;;;;;3.42;1.80;;;8.80;72.30;;;;;;2329186;54;20995;-80
2021/12/13 03:57:20;;;;;;;4.25;1.85;;;8.80;72.30;;;;;;2332133;54;21676;-81
2021/12/13 03:59:47;;;;;;;5.45;2.12;;;8.80;72.30;;;;;;2555439;53;21796;-81
2021/12/13 04:02:25;;;;;;;3.97;2.00;;;8.80;72.20;;;;;;2567177;53;20970;-81
2021/12/13 04:05:04;;;;;;;3.55;2.05;;;8.80;72.20;;;;;;2559671;53;21059;-81
2021/12/13 04:07:44;;;;;;;4.43;2.03;;;8.80;71.90;;;;;;2317627;54;20919;-80
2021/12/13 04:10:33;;;;;;;4.22;1.80;;;8.80;71.80;;;;;;2557537;53;20944;-80
2021/12/13 04:13:01;;;;;;;3.42;1.65;;;8.70;71.50;;;;;;2319165;54;20995;-81
2021/12/13 04:16:32;;;;;;;3.80;1.85;;;8.70;71.80;;;;;;2557414;53;22213;-81
2021/12/13 04:19:08;;;;;;;3.78;1.70;;;8.70;71.60;;;;;;2341652;54;21102;-81
2021/12/13 04:22:17;;;;;;;4.12;2.00;;;8.60;71.40;;;;;;2540600;53;20931;-81
2021/12/13 04:24:47;;;;;;;3.37;1.70;;;8.60;71.40;;;;;;2318239;55;21019;-80
2021/12/13 04:27:27;;;;;;;3.65;1.55;;;8.60;71.50;;;;;;2571767;53;21048;-81
2021/12/13 04:29:56;;;;;;;3.45;1.80;;;8.60;71.30;;;;;;2548190;53;20954;-81
2021/12/13 04:32:32;;;;;;;3.45;1.83;;;8.50;71.30;;;;;;2321951;54;20915;-80
2021/12/13 04:35:00;;;;;;;4.35;2.33;;;8.50;71.30;;;;;;2326567;54;20943;-81
2021/12/13 04:37:34;;;;;;;3.92;1.80;;;8.40;71.20;;;;;;2326386;54;20961;-81
2021/12/13 04:40:05;;;;;;;4.15;1.80;;;8.40;71.20;;;;;;2561023;53;21534;-80
2021/12/13 04:42:31;;;;;;;3.47;1.65;;;8.40;71.40;;;;;;2545634;53;21006;-81
2021/12/13 04:45:04;;;;;;;3.87;1.70;;;8.30;71.50;;;;;;2557398;53;20950;-81
2021/12/13 04:47:37;;;;;;;3.30;1.60;;;8.30;71.50;;;;;;2317691;54;21346;-80
2021/12/13 04:50:13;;;;;;;3.25;1.42;;;8.30;71.50;;;;;;2575040;53;21035;-80
2021/12/13 04:52:40;;;;;;;4.28;1.65;;;8.30;71.40;;;;;;2523476;54;21023;-81
2021/12/13 04:55:10;;;;;;;3.72;1.65;;;8.20;71.30;;;;;;2333600;54;21654;-80
2021/12/13 04:57:37;;;;;;;3.05;1.40;;;8.20;71.20;;;;;;2556418;53;21454;-81
2021/12/13 05:00:08;;;;;;;3.08;1.20;;;8.20;71.20;;;;;;2573627;53;21058;-80
2021/12/13 05:02:35;;;;;;;4.12;1.85;;;8.10;71.00;;;;;;2559298;53;21062;-81
2021/12/13 05:05:03;;;;;;;3.10;1.30;;;8.10;71.00;;;;;;2568314;53;20956;-80
2021/12/13 05:07:31;;;;;;;3.17;1.37;;;8.10;71.00;;;;;;2340169;54;20967;-81
2021/12/13 05:09:57;;;;;;;2.85;1.23;;;8.00;70.80;;;;;;2338907;54;21003;-81
2021/12/13 05:12:28;;;;;;;4.03;1.70;;;8.00;70.60;;;;;;2535487;53;21049;-81
2021/12/13 05:15:03;;;;;;;2.75;1.35;;;7.90;70.50;;;;;;2340788;54;20950;-81
2021/12/13 05:17:35;;;;;;;4.15;1.35;;;7.90;70.20;;;;;;2536028;53;21095;-81
2021/12/13 05:20:25;;;;;;;4.25;1.40;;;7.80;70.10;;;;;;2335032;54;20918;-82
2021/12/13 05:23:11;;;;;;;2.87;1.37;;;7.80;69.70;;;;;;2315119;54;20927;-82
2021/12/13 05:25:46;;;;;;;3.67;1.60;;;7.70;69.60;;;;;;2537788;53;20944;-81
2021/12/13 05:28:27;;;;;;;4.20;1.60;;;7.70;69.70;;;;;;2553777;53;21022;-81
2021/12/13 05:30:57;;;;;;;3.85;1.60;;;7.60;69.50;;;;;;2314375;54;20975;-81
2021/12/13 05:33:24;;;;;;;4.03;1.40;;;7.50;69.50;;;;;;2561610;53;20947;-81
2021/12/13 05:35:52;;;;;;;3.17;1.40;;;7.50;69.40;;;;;;2568953;53;21074;-80
2021/12/13 05:39:18;;;;;;;2.80;1.48;;;7.40;69.40;;;;;;2555905;53;20995;-80
2021/12/13 05:41:53;;;;;;;4.07;1.70;;;7.30;68.90;;;;;;2566127;53;20996;-81
2021/12/13 05:44:25;;;;;;;3.80;1.60;;;7.20;69.20;;;;;;2567013;53;20899;-80
2021/12/13 05:46:51;;;;;;;4.55;1.83;;;7.20;69.30;;;;;;2556423;53;21496;-80
2021/12/13 05:49:26;;;;;;;2.78;1.55;;;7.10;69.30;;;;;;2329462;54;20929;-80
2021/12/13 05:51:55;;;;;;;3.10;1.40;;;7.00;69.20;;;;;;2319783;54;20955;-81
2021/12/13 05:54:35;;;;;;;3.12;1.30;;;7.00;69.40;;;;;;2321432;54;20956;-81
2021/12/13 05:57:40;;;;;;;3.00;1.40;;;6.90;69.20;;;;;;2566895;53;21086;-81
2021/12/13 06:00:30;;;;;;;6.20;2.22;;;6.90;69.30;;;;;;2567188;53;20923;-80
2021/12/13 06:03:23;;;;;;;10.38;3.90;;;6.80;69.00;;;;;;2555334;53;21039;-82
2021/12/13 06:05:52;;;;;;;;;;;6.70;69.00;;;;;;2524814;54;20967;-81
2021/12/13 06:08:27;;;;;;;4.70;1.95;;;6.70;68.70;;;;;;2523274;54;20079;-81
2021/12/13 06:11:04;;;;;;;3.92;1.80;;;6.60;69.10;;;;;;2554055;53;22107;-81
2021/12/13 06:17:03;;;;;;;4.53;1.70;;;6.60;69.30;;;;;;2317359;54;20946;-81
2021/12/13 06:19:36;;;;;;;3.15;1.37;;;6.40;68.90;;;;;;2555970;53;21536;-81
2021/12/13 06:22:16;;;;;;;3.25;1.35;;;6.40;69.40;;;;;;2555400;53;20947;-81
2021/12/13 06:24:45;;;;;;;3.33;1.42;;;6.30;69.60;;;;;;2317352;55;21015;-80
2021/12/13 06:27:20;;;;;;;3.40;1.70;;;6.20;69.90;;;;;;2567270;53;21096;-80
2021/12/13 06:30:05;;;;;;;4.45;1.50;;;6.20;70.00;;;;;;2558641;53;20994;-80
2021/12/13 06:32:53;;;;;;;3.40;1.67;;;6.20;70.00;;;;;;2549254;53;20927;-80
2021/12/13 06:37:12;;;;;;;4.15;1.80;;;6.10;69.90;;;;;;2549799;53;21039;-81
2021/12/13 06:39:38;;;;;;;4.47;1.90;;;6.10;69.50;;;;;;2556737;53;21019;-81
2021/12/13 06:42:05;;;;;;;3.87;1.90;;;6.10;70.10;;;;;;2567435;53;21410;-81
2021/12/13 06:44:41;;;;;;;3.62;2.10;;;6.00;70.00;;;;;;2564104;53;20944;-81
2021/12/13 06:47:23;;;;;;;3.47;1.80;;;6.00;70.00;;;;;;2559933;53;20996;-80
2021/12/13 06:49:54;;;;;;;4.62;2.10;;;5.90;69.90;;;;;;2334499;54;20955;-80
2021/12/13 06:52:32;;;;;;;4.35;2.15;;;5.90;69.90;;;;;;2550086;53;21027;-80
2021/12/13 06:55:11;;;;;;;4.25;1.80;;;5.90;69.90;;;;;;2318101;55;20979;-80
2021/12/13 06:57:42;;;;;;;3.83;2.10;;;5.80;69.90;;;;;;2343410;54;20967;-81
2021/12/13 07:00:32;;;;;;;4.12;2.25;;;5.80;70.10;;;;;;2539372;53;21900;-80
2021/12/13 07:03:00;;;;;;;4.45;2.33;;;5.70;70.10;;;;;;2517357;54;21003;-81
2021/12/13 07:06:33;;;;;;;4.50;2.08;;;5.70;70.40;;;;;;2567992;53;21644;-80
2021/12/13 07:09:06;;;;;;;4.43;2.22;;;5.70;70.20;;;;;;2515250;54;21050;-80
2021/12/13 07:11:39;;;;;;;;;;;5.70;70.20;;;;;;2532056;53;20960;-81
2021/12/13 07:14:07;;;;;;;5.10;2.30;;;5.70;69.60;;;;;;2559569;53;20139;-81
2021/12/13 07:16:35;;;;;;;6.28;1.92;;;5.60;70.00;;;;;;2555458;53;20947;-80
2021/12/13 07:19:13;;;;;;;4.25;2.10;;;5.60;70.10;;;;;;2287554;54;22123;-81
2021/12/13 07:21:46;;;;;;;4.82;2.37;;;5.60;70.00;;;;;;2564830;53;20967;-80
2021/12/13 07:24:18;;;;;;;5.43;2.20;;;5.50;70.00;;;;;;2309211;54;20927;-81
2021/12/13 07:27:23;;;;;;;4.95;2.25;;;5.50;70.20;;;;;;2310827;54;20966;-80
2021/12/13 07:29:56;;;;;;;4.18;2.00;;;5.50;70.00;;;;;;2315133;54;20971;-81
2021/12/13 07:32:31;;;;;;;4.82;2.20;;;5.40;70.20;;;;;;2562423;53;20920;-81
2021/12/13 07:35:22;;;;;;;4.50;1.80;;;5.40;70.30;;;;;;2319571;54;21499;-80
2021/12/13 07:38:04;;;;;;;3.95;1.90;;;5.40;70.20;;;;;;2338360;54;20947;-80
2021/12/13 07:42:22;;;;;;;;;;;5.40;70.40;;;;;;2314963;54;21786;-81
2021/12/13 07:44:51;;;;;;;4.47;2.45;;;5.40;69.80;;;;;;2557743;53;20574;-80
2021/12/13 07:47:20;;;;;;;5.37;2.40;;;5.30;70.40;;;;;;2314796;54;20995;-80
2021/12/13 07:49:51;;;;;;;5.37;2.53;;;5.30;70.50;;;;;;2546902;53;20947;-80
2021/12/13 07:52:32;;;;;;;6.95;3.40;;;5.30;70.60;;;;;;2329156;54;20927;-80
2021/12/13 07:55:16;;;;;;;8.45;3.45;;;5.30;70.80;;;;;;2311502;55;22051;-80
2021/12/13 07:57:42;;;;;;;7.47;3.60;;;5.30;70.80;;;;;;2314431;54;21383;-81
2021/12/13 08:00:31;;;;;;;8.23;4.07;;;5.30;71.10;;;;;;2553562;53;21385;-80
2021/12/13 08:03:04;;;;;;;9.02;3.87;;;5.30;71.20;;;;;;2317528;54;20955;-80
2021/12/13 08:05:37;;;;;;;11.68;4.68;;;5.30;71.50;;;;;;2317752;54;21005;-80
2021/12/13 08:08:03;;;;;;;12.60;5.47;;;5.30;71.70;;;;;;2321053;54;21082;-81
2021/12/13 08:10:37;;;;;;;14.00;6.32;;;5.40;72.00;;;;;;2310480;55;21961;-80
2021/12/13 08:13:18;;;;;;;13.80;6.35;;;5.40;72.20;;;;;;2310276;54;21006;-80
2021/12/13 08:15:53;;;;;;;14.63;7.10;;;5.40;72.40;;;;;;2310777;54;20955;-81
2021/12/13 08:18:49;;;;;;;13.95;6.40;;;5.50;73.00;;;;;;2562607;53;22201;-83
2021/12/13 08:21:25;;;;;;;12.30;6.10;;;5.60;73.40;;;;;;2551707;53;21588;-83
2021/12/13 08:23:54;;;;;;;9.65;4.72;;;5.60;73.70;;;;;;2319208;54;20975;-80
2021/12/13 08:26:37;;;;;;;9.80;5.40;;;5.70;74.10;;;;;;2307793;54;20995;-81
2021/12/13 08:29:15;;;;;;;11.25;6.45;;;5.80;74.40;;;;;;2546968;53;20944;-80
2021/12/13 08:31:43;;;;;;;10.85;6.00;;;5.90;75.50;;;;;;2284935;54;20975;-81
2021/12/13 08:34:22;;;;;;;9.07;4.90;;;6.00;75.10;;;;;;2515044;54;21628;-80
2021/12/13 08:36:50;;;;;;;8.20;5.28;;;6.10;75.40;;;;;;2308095;54;20947;-80
2021/12/13 08:39:35;;;;;;;11.52;5.53;;;6.20;75.60;;;;;;2546262;53;21507;-80
2021/12/13 08:42:10;;;;;;;8.13;5.28;;;6.30;75.60;;;;;;2326458;54;21039;-80
2021/12/13 08:44:42;;;;;;;9.48;5.60;;;6.40;75.90;;;;;;2543477;53;20943;-81
2021/12/13 08:47:24;;;;;;;11.20;6.50;;;6.60;76.20;;;;;;2548086;53;20978;-81
2021/12/13 08:50:18;;;;;;;11.43;6.40;;;6.70;76.20;;;;;;2314604;54;21230;-81
2021/12/13 08:52:45;;;;;;;10.63;6.12;;;6.80;76.10;;;;;;2321001;54;21362;-81
2021/12/13 08:55:19;;;;;;;11.32;6.70;;;6.90;76.40;;;;;;2547129;53;21440;-81
2021/12/13 09:04:35;;;;;;;10.38;6.22;;;7.10;76.50;;;;;;2546554;53;21479;-81
2021/12/13 09:07:03;;;;;;;8.25;3.30;;;7.50;75.10;;;;;;2557227;53;20944;-80
2021/12/13 09:09:30;;;;;;;6.70;3.55;;;7.60;76.30;;;;;;2318694;54;20943;-81
2021/12/13 09:12:04;;;;;;;6.43;3.90;;;7.70;76.60;;;;;;2551422;53;21444;-80
2021/12/13 09:14:44;;;;;;;8.98;4.25;;;7.80;76.70;;;;;;2317424;54;21043;-81
2021/12/13 09:17:21;;;;;;;8.02;4.40;;;7.90;76.70;;;;;;2329640;54;22059;-80
2021/12/13 09:20:01;;;;;;;9.30;4.40;;;8.00;76.80;;;;;;2307669;54;21050;-80
2021/12/13 09:22:48;;;;;;;8.40;5.28;;;8.10;76.60;;;;;;2311780;54;20927;-82
2021/12/13 09:25:47;;;;;;;9.77;5.43;;;8.30;76.40;;;;;;2317804;54;21011;-80
2021/12/13 09:29:36;;;;;;;7.72;4.50;;;8.40;75.90;;;;;;2319367;54;20982;-80
2021/12/13 09:32:11;;;;;;;7.28;3.53;;;8.50;76.60;;;;;;2544039;53;20994;-80
2021/12/13 09:34:37;;;;;;;7.20;3.75;;;8.60;76.60;;;;;;2307660;54;20947;-81
2021/12/13 09:37:05;;;;;;;8.13;4.18;;;8.70;76.80;;;;;;2313335;54;20951;-81
2021/12/13 09:39:31;;;;;;;6.65;3.92;;;8.80;76.70;;;;;;2564082;53;21466;-81
2021/12/13 09:42:00;;;;;;;10.48;5.55;;;8.90;76.50;;;;;;2332127;54;20927;-81
2021/12/13 09:44:48;;;;;;;11.12;6.10;;;9.00;76.20;;;;;;2308200;54;20939;-81
2021/12/13 09:47:22;;;;;;;9.55;5.32;;;9.10;76.10;;;;;;2548838;53;21074;-81
2021/12/13 09:50:32;;;;;;;9.88;5.47;;;9.20;76.00;;;;;;2561895;53;20982;-80
2021/12/13 09:53:06;;;;;;;9.18;4.85;;;9.20;74.90;;;;;;2554163;53;21024;-80
2021/12/13 09:55:38;;;;;;;9.80;4.57;;;9.30;75.00;;;;;;2322897;54;20924;-80
2021/12/13 09:58:21;;;;;;;7.57;4.87;;;9.30;74.90;;;;;;2553596;53;20988;-81
2021/12/13 10:01:33;;;;;;;7.40;4.57;;;9.40;74.50;;;;;;2545402;53;20919;-80
2021/12/13 10:04:09;;;;;;;7.87;4.47;;;9.40;73.60;;;;;;2284891;54;21003;-81
2021/12/13 10:06:41;;;;;;;8.98;5.85;;;9.40;74.20;;;;;;2308172;54;20979;-81
2021/12/13 10:09:24;;;;;;;9.95;5.22;;;9.40;74.30;;;;;;2563459;53;20939;-81
2021/12/13 10:12:15;;;;;;;8.20;4.95;;;9.50;73.90;;;;;;2549706;53;20931;-80
2021/12/13 10:14:54;;;;;;;10.05;5.15;;;9.50;74.00;;;;;;2548912;53;20979;-80
2021/12/13 10:17:21;;;;;;;6.97;4.70;;;9.50;74.00;;;;;;2564506;53;21046;-81
2021/12/13 10:19:51;;;;;;;8.95;5.45;;;9.50;74.30;;;;;;2547043;53;20947;-81
2021/12/13 10:22:23;;;;;;;8.65;5.68;;;9.60;74.50;;;;;;2547900;53;21298;-81
2021/12/13 10:24:53;;;;;;;7.57;4.60;;;9.60;74.50;;;;;;2550520;53;21010;-81
2021/12/13 10:27:19;;;;;;;7.60;5.00;;;9.60;74.50;;;;;;2561878;53;21058;-80
2021/12/13 10:29:49;;;;;;;7.53;4.37;;;9.70;74.80;;;;;;2325308;54;21000;-81
2021/12/13 10:32:24;;;;;;;6.43;3.28;;;9.70;74.70;;;;;;2549696;53;21300;-81
2021/12/13 10:34:56;;;;;;;8.80;3.70;;;9.70;74.80;;;;;;2559600;53;20923;-80
2021/12/13 10:38:08;;;;;;;6.25;3.37;;;9.80;75.00;;;;;;2551659;53;20892;-80
2021/12/13 10:40:39;;;;;;;4.78;2.70;;;9.80;74.90;;;;;;2547332;53;20967;-80
2021/12/13 10:43:11;;;;;;;4.62;2.78;;;9.90;76.00;;;;;;2548277;53;21619;-81
2021/12/13 10:45:42;;;;;;;6.40;3.60;;;10.00;77.20;;;;;;2309712;54;20941;-81
2021/12/13 10:48:11;;;;;;;6.00;3.37;;;10.30;80.10;;;;;;2548217;53;22006;-80
2021/12/13 10:50:50;;;;;;;4.65;2.90;;;10.70;82.70;;;;;;2549047;53;20932;-80
2021/12/13 10:53:19;;;;;;;5.78;3.05;;;11.10;84.30;;;;;;2547291;53;20923;-81
2021/12/13 10:55:52;;;;;;;5.45;3.45;;;11.60;85.60;;;;;;2545322;53;20907;-81
2021/12/13 10:58:24;;;;;;;5.32;3.08;;;12.10;85.90;;;;;;2318979;54;20931;-80
2021/12/13 11:00:55;;;;;;;5.20;3.00;;;12.60;85.40;;;;;;2553566;53;20947;-80
2021/12/13 11:03:23;;;;;;;6.87;3.60;;;13.00;84.70;;;;;;2307988;54;20951;-80
2021/12/13 11:05:51;;;;;;;5.68;3.40;;;13.40;84.30;;;;;;2546070;53;20935;-80
2021/12/13 11:08:19;;;;;;;5.75;3.58;;;13.80;83.80;;;;;;2545709;53;21074;-81
2021/12/13 11:10:54;;;;;;;5.68;3.60;;;14.20;83.20;;;;;;2564742;53;20915;-80
2021/12/13 11:13:25;;;;;;;5.32;3.28;;;14.50;81.30;;;;;;2545459;53;20955;-80
2021/12/13 11:15:53;;;;;;;4.87;2.95;;;14.80;80.10;;;;;;2550090;53;20967;-80
2021/12/13 11:18:27;;;;;;;5.90;3.47;;;15.00;78.20;;;;;;2307492;54;20955;-81
2021/12/13 11:20:58;;;;;;;5.62;3.53;;;15.10;77.30;;;;;;2558491;53;20956;-82
2021/12/13 11:23:24;;;;;;;5.45;3.22;;;15.30;76.60;;;;;;2312894;54;20991;-80
2021/12/13 11:25:59;;;;;;;5.72;3.15;;;15.40;75.40;;;;;;2545567;53;20983;-81
2021/12/13 11:28:28;;;;;;;6.22;3.97;;;15.40;73.40;;;;;;2545651;53;20947;-80
2021/12/13 11:30:56;;;;;;;6.70;3.78;;;15.40;73.50;;;;;;2545751;53;20939;-80
2021/12/13 11:43:42;;;;;;;6.43;3.78;;;15.40;72.60;;;;;;2307346;54;20967;-80
2021/12/13 11:49:41;;;;;;;5.37;2.87;;;15.20;69.70;;;;;;2555420;53;20996;-81
2021/12/13 11:52:32;;;;;;;5.03;2.72;;;14.80;69.90;;;;;;2473124;53;2245565;-81
2021/12/13 11:55:21;;;;;;;5.87;3.00;;;14.80;69.10;;;;;;2545842;53;21543;-80
2021/12/13 11:58:24;;;;;;;7.43;4.40;;;14.60;69.00;;;;;;2543552;53;20959;-80
2021/12/13 12:02:42;;;;;;;5.40;3.87;;;14.50;68.80;;;;;;2559941;53;21598;-82
2021/12/13 12:06:21;;;;;;;5.95;3.90;;;14.40;69.30;;;;;;2514831;53;20983;-81
2021/12/13 12:10:58;;;;;;;7.43;4.12;;;14.30;68.50;;;;;;2543619;53;20944;-81
2021/12/13 12:14:05;;;;;;;7.00;3.90;;;14.30;69.30;;;;;;2544449;53;20982;-80
2021/12/13 12:16:39;;;;;;;6.90;3.45;;;14.30;71.00;;;;;;2547650;53;20976;-80
2021/12/13 12:19:09;;;;;;;8.68;3.50;;;14.30;72.50;;;;;;2302568;54;20991;-80
2021/12/13 12:21:51;;;;;;;6.12;3.58;;;14.40;72.50;;;;;;2554631;53;20916;-80
2021/12/13 12:24:29;;;;;;;6.28;3.50;;;14.40;71.70;;;;;;2322332;54;20936;-81
2021/12/13 12:27:00;;;;;;;6.12;3.37;;;14.50;71.60;;;;;;2546061;53;21578;-80
2021/12/13 12:29:32;;;;;;;6.25;3.37;;;14.60;71.80;;;;;;2315657;54;20951;-80
2021/12/13 12:32:05;;;;;;;7.40;3.30;;;14.60;71.60;;;;;;2550102;53;20942;-80
2021/12/13 12:34:33;;;;;;;7.40;3.35;;;14.70;71.50;;;;;;2553216;53;20936;-80
2021/12/13 12:40:17;;;;;;;4.93;2.83;;;14.70;71.20;;;;;;2541400;53;20959;-81
2021/12/13 12:42:45;;;;;;;4.22;2.00;;;14.90;69.50;;;;;;2321988;54;21051;-80
2021/12/13 12:45:35;;;;;;;5.28;2.40;;;14.90;71.40;;;;;;2551613;53;20963;-81
2021/12/13 12:48:43;;;;;;;4.35;2.10;;;15.00;70.00;;;;;;2546269;53;20943;-81
2021/12/13 12:51:31;;;;;;;4.75;2.37;;;15.00;68.70;;;;;;2314412;54;20899;-81
2021/12/13 12:54:03;;;;;;;8.27;3.17;;;15.10;69.50;;;;;;2312083;54;22079;-80
2021/12/13 12:57:13;;;;;;;4.62;2.40;;;15.10;70.80;;;;;;2304820;55;20947;-81
2021/12/13 12:59:42;;;;;;;4.43;2.28;;;15.20;68.50;;;;;;2305095;54;21561;-81
2021/12/13 13:02:14;;;;;;;4.37;2.08;;;15.20;70.50;;;;;;2542389;53;20987;-81
2021/12/13 13:04:45;;;;;;;4.60;2.12;;;15.30;69.80;;;;;;2549854;53;20915;-81
2021/12/13 13:07:18;;;;;;;4.00;1.73;;;15.30;70.00;;;;;;2552754;53;22296;-81
2021/12/13 13:09:53;;;;;;;4.18;1.73;;;15.40;70.10;;;;;;2542343;53;20983;-81
2021/12/13 13:12:33;;;;;;;4.35;1.73;;;15.50;69.80;;;;;;2291116;54;20959;-82
2021/12/13 13:15:14;;;;;;;3.58;2.05;;;15.50;69.60;;;;;;2554224;53;21034;-82
2021/12/13 13:17:46;;;;;;;3.97;2.08;;;15.60;69.00;;;;;;2541912;53;21011;-81
2021/12/13 13:20:19;;;;;;;5.07;2.37;;;15.70;69.60;;;;;;2543636;53;21107;-80
2021/12/13 13:22:46;;;;;;;4.75;2.20;;;15.70;69.20;;;;;;2543219;53;20935;-82
2021/12/13 13:25:42;;;;;;;4.93;2.10;;;15.70;69.20;;;;;;2552574;53;20999;-81
2021/12/13 13:28:30;;;;;;;6.03;2.17;;;15.80;67.70;;;;;;2547576;53;21651;-82
2021/12/13 13:31:23;;;;;;;5.30;2.25;;;15.80;67.10;;;;;;2304310;55;20967;-81
2021/12/13 13:33:52;;;;;;;4.00;2.17;;;15.80;66.80;;;;;;2552411;53;22124;-81
2021/12/13 13:37:10;;;;;;;4.50;2.22;;;15.70;68.00;;;;;;2312612;54;21989;-82
2021/12/13 13:39:42;;;;;;;3.85;2.17;;;15.70;68.00;;;;;;2540652;53;20982;-81
2021/12/13 13:43:31;;;;;;;3.73;2.00;;;15.60;68.10;;;;;;2541733;53;20951;-81
2021/12/13 13:45:58;;;;;;;4.15;2.10;;;15.60;66.30;;;;;;2543394;53;21347;-82
2021/12/13 13:48:31;;;;;;;6.45;2.33;;;15.50;68.20;;;;;;2540655;53;21090;-82
2021/12/13 13:51:17;;;;;;;5.25;2.40;;;15.40;67.90;;;;;;2542763;53;20986;-82
2021/12/13 13:53:46;;;;;;;3.80;2.10;;;15.40;68.20;;;;;;2542891;53;20951;-81
2021/12/13 13:56:19;;;;;;;5.82;2.50;;;15.20;67.80;;;;;;2322511;54;20983;-82
2021/12/13 13:58:46;;;;;;;;;;;15.20;67.80;;;;;;2554292;53;20924;-82
2021/12/13 14:01:22;;;;;;;5.45;2.40;;;15.10;66.40;;;;;;2554345;53;20068;-82
2021/12/13 14:04:15;;;;;;;5.80;2.80;;;14.90;67.90;;;;;;2543126;53;20934;-82
2021/12/13 14:06:42;;;;;;;;;;;14.80;67.60;;;;;;2544864;53;22091;-82
2021/12/13 14:09:10;;;;;;;4.47;2.28;;;14.70;67.00;;;;;;2552164;53;20166;-82
2021/12/13 14:11:57;;;;;;;4.22;2.53;;;14.60;68.30;;;;;;2309973;54;21002;-81
2021/12/13 14:14:25;;;;;;;4.68;2.58;;;14.50;67.20;;;;;;2532797;53;20936;-82
2021/12/13 14:16:57;;;;;;;4.07;2.65;;;14.30;67.80;;;;;;2512202;54;20967;-81
2021/12/13 14:19:44;;;;;;;5.57;2.72;;;14.20;67.40;;;;;;2308283;55;20939;-81
2021/12/13 14:22:11;;;;;;;5.62;3.17;;;14.00;66.80;;;;;;2329502;54;21468;-82
2021/12/13 14:24:43;;;;;;;5.15;3.08;;;13.90;67.30;;;;;;2524019;53;20975;-82
2021/12/13 14:27:24;;;;;;;5.15;3.30;;;13.70;67.00;;;;;;2555998;53;20951;-81
2021/12/13 14:29:53;;;;;;;4.87;3.10;;;13.60;66.60;;;;;;2545794;53;20994;-81
2021/12/13 14:32:19;;;;;;;4.62;2.67;;;13.40;67.20;;;;;;2543402;53;21006;-81
2021/12/13 14:34:46;;;;;;;6.05;3.03;;;13.30;67.40;;;;;;2305237;54;21995;-81
2021/12/13 14:37:15;;;;;;;4.72;2.60;;;13.20;67.50;;;;;;2544030;53;20971;-81
2021/12/13 14:39:46;;;;;;;5.12;2.50;;;13.00;67.50;;;;;;2558323;53;21058;-81
2021/12/13 14:42:15;;;;;;;5.20;2.95;;;12.90;67.40;;;;;;2314006;54;21035;-81
2021/12/13 14:44:50;;;;;;;6.20;2.75;;;12.80;67.60;;;;;;2300344;54;20943;-81
2021/12/13 14:47:22;;;;;;;4.82;2.62;;;12.70;67.60;;;;;;2326437;54;20966;-81
2021/12/13 14:49:54;;;;;;;5.47;2.87;;;12.60;67.80;;;;;;2543573;53;21002;-81
2021/12/13 14:52:25;;;;;;;4.90;2.40;;;12.50;67.90;;;;;;2547449;53;21033;-82
2021/12/13 14:54:54;;;;;;;5.07;3.00;;;12.40;67.90;;;;;;2309637;54;20932;-81